Time;durP1;ratioP1;P1;durP2;ratioP2;P2;SDS_P1;SDS_P2;PMS_P1;PMS_P2;Temp;Humidity;BMP_temperature;BMP_pressure;BME280_temperature;BME280_humidity;BME280_pressure;Samples;Min_cycle;Max_cycle;Signal;HPM_P1;HPM_P2
2023/05/25 00:00:38;;;;;;;12.07;7.90;;;13.50;98.80;;;;;;5074815;28;20437;-49
2023/05/25 00:03:04;;;;;;;11.87;6.33;;;13.20;98.60;;;;;;5074626;28;20433;-50
2023/05/25 00:05:31;;;;;;;14.33;6.10;;;13.60;99.00;;;;;;5074759;28;20447;-49
2023/05/25 00:08:01;;;;;;;10.93;6.53;;;13.90;99.10;;;;;;5074584;28;20837;-51
2023/05/25 00:10:28;;;;;;;12.13;6.03;;;13.80;99.10;;;;;;5074175;28;20501;-50
2023/05/25 00:12:55;;;;;;;10.33;6.13;;;13.50;99.10;;;;;;5074558;28;20426;-50
2023/05/25 00:15:22;;;;;;;11.27;6.40;;;13.50;99.00;;;;;;5074459;28;20491;-51
2023/05/25 00:17:49;;;;;;;8.77;6.30;;;13.90;99.10;;;;;;5074665;28;20430;-51
2023/05/25 00:20:16;;;;;;;11.73;6.30;;;13.40;98.90;;;;;;5074058;28;20417;-50
2023/05/25 00:22:44;;;;;;;9.87;6.00;;;13.60;99.00;;;;;;5074156;28;20454;-50
2023/05/25 00:25:12;;;;;;;9.20;6.60;;;13.80;99.00;;;;;;5074434;28;20530;-50
2023/05/25 00:27:39;;;;;;;10.80;6.47;;;13.40;98.80;;;;;;5073383;28;20435;-49
2023/05/25 00:30:07;;;;;;;14.80;6.40;;;13.80;99.00;;;;;;5055781;28;20499;-50
2023/05/25 00:32:34;;;;;;;10.30;6.57;;;13.70;98.90;;;;;;5073947;28;20848;-49
2023/05/25 00:35:00;;;;;;;10.97;5.77;;;13.90;99.00;;;;;;5074079;28;20412;-50
2023/05/25 00:37:27;;;;;;;11.10;6.37;;;13.90;99.00;;;;;;5073905;28;20864;-49
2023/05/25 00:39:54;;;;;;;12.83;6.13;;;14.10;99.00;;;;;;5073771;28;20502;-50
2023/05/25 00:42:23;;;;;;;10.03;6.20;;;13.90;98.90;;;;;;5073966;28;20450;-50
2023/05/25 00:44:50;;;;;;;12.80;5.70;;;13.70;98.70;;;;;;5073915;28;20429;-48
2023/05/25 00:47:16;;;;;;;10.23;5.47;;;13.80;98.80;;;;;;5073874;28;20407;-50
2023/05/25 00:49:43;;;;;;;11.73;5.70;;;14.00;98.90;;;;;;5073419;28;20406;-50
2023/05/25 00:52:12;;;;;;;10.73;6.27;;;13.30;98.40;;;;;;5073461;28;20454;-50
2023/05/25 00:54:39;;;;;;;16.77;6.60;;;14.00;98.70;;;;;;5073758;28;20500;-50
2023/05/25 00:57:07;;;;;;;10.47;5.87;;;14.10;98.80;;;;;;5055903;28;20485;-49
2023/05/25 00:59:40;;;;;;;10.53;6.23;;;13.80;98.60;;;;;;5073375;28;20399;-50
2023/05/25 01:02:09;;;;;;;14.60;6.47;;;13.80;98.60;;;;;;5055648;28;20569;-50
2023/05/25 01:04:40;;;;;;;9.30;5.20;;;13.80;98.60;;;;;;5055444;28;20448;-49
2023/05/25 01:07:10;;;;;;;8.83;4.93;;;14.00;98.70;;;;;;5073873;28;20430;-50
2023/05/25 01:09:39;;;;;;;12.47;5.97;;;13.50;98.50;;;;;;5073167;28;20400;-49
2023/05/25 01:12:07;;;;;;;10.20;7.10;;;13.60;98.70;;;;;;5073242;28;20488;-50
2023/05/25 01:14:35;;;;;;;8.30;6.10;;;13.80;98.80;;;;;;5073441;28;20760;-50
2023/05/25 01:17:04;;;;;;;9.83;6.37;;;13.50;98.80;;;;;;5073369;28;20432;-49
2023/05/25 01:19:32;;;;;;;11.13;6.27;;;13.40;98.90;;;;;;5072913;28;20435;-50
2023/05/25 01:22:05;;;;;;;11.80;6.40;;;13.30;98.90;;;;;;5073134;28;20442;-50
2023/05/25 01:24:39;;;;;;;8.13;5.43;;;13.40;99.10;;;;;;5055264;28;20855;-51
2023/05/25 01:27:10;;;;;;;8.13;6.20;;;13.20;99.20;;;;;;5073134;28;20412;-50
2023/05/25 01:29:39;;;;;;;9.40;6.27;;;13.60;99.50;;;;;;5054642;28;20451;-49
2023/05/25 01:32:07;;;;;;;10.13;6.50;;;13.60;99.60;;;;;;5072800;28;20537;-50
2023/05/25 01:34:35;;;;;;;13.60;6.33;;;13.60;99.70;;;;;;5054919;28;20471;-50
2023/05/25 01:37:03;;;;;;;8.63;6.30;;;13.60;99.80;;;;;;5072907;28;20800;-50
2023/05/25 01:39:30;;;;;;;8.07;5.20;;;13.10;99.60;;;;;;5072563;28;20429;-48
2023/05/25 01:41:57;;;;;;;8.73;5.60;;;13.60;99.90;;;;;;5072708;28;20523;-49
2023/05/25 01:44:24;;;;;;;9.70;6.07;;;13.10;99.70;;;;;;5072688;28;20755;-49
2023/05/25 01:46:58;;;;;;;7.40;5.53;;;13.30;99.90;;;;;;5054742;28;20514;-50
2023/05/25 01:49:28;;;;;;;9.83;6.90;;;13.60;99.90;;;;;;5054362;28;20454;-49
2023/05/25 01:52:03;;;;;;;8.37;5.70;;;13.60;99.90;;;;;;5054425;28;21015;-51
2023/05/25 01:54:36;;;;;;;10.70;5.93;;;12.80;99.90;;;;;;5072544;28;20802;-51
2023/05/25 01:57:07;;;;;;;9.67;7.30;;;13.20;99.90;;;;;;5054629;28;20435;-51
2023/05/25 01:59:35;;;;;;;11.63;6.77;;;13.00;99.90;;;;;;5054412;28;20681;-51
2023/05/25 02:02:05;;;;;;;9.80;6.00;;;12.80;99.90;;;;;;5054588;28;20464;-51
2023/05/25 02:04:33;;;;;;;12.20;6.17;;;13.00;99.90;;;;;;5072457;28;20429;-51
2023/05/25 02:07:00;;;;;;;9.87;6.40;;;13.00;99.90;;;;;;5072353;28;20441;-51
2023/05/25 02:09:26;;;;;;;10.53;6.40;;;13.50;99.90;;;;;;5054109;28;20522;-50
2023/05/25 02:11:55;;;;;;;14.87;6.87;;;13.50;99.90;;;;;;5054212;28;20483;-51
2023/05/25 02:14:21;;;;;;;13.57;6.70;;;13.40;99.90;;;;;;5054416;28;20818;-49
2023/05/25 02:16:48;;;;;;;10.00;6.40;;;13.20;99.90;;;;;;5072147;28;20432;-49
2023/05/25 02:19:15;;;;;;;8.43;5.97;;;13.10;99.90;;;;;;5053889;28;20452;-49
2023/05/25 02:21:41;;;;;;;10.50;6.63;;;13.30;99.90;;;;;;5053931;28;20502;-50
2023/05/25 02:24:09;;;;;;;17.93;7.10;;;12.70;99.90;;;;;;5071950;28;20431;-50
2023/05/25 02:26:35;;;;;;;11.57;6.97;;;13.00;99.90;;;;;;5072167;28;20466;-50
2023/05/25 02:29:04;;;;;;;13.87;7.00;;;13.20;99.90;;;;;;5071964;28;20934;-49
2023/05/25 02:31:32;;;;;;;12.70;6.80;;;13.20;99.90;;;;;;5054059;28;20484;-50
2023/05/25 02:33:59;;;;;;;11.53;6.20;;;12.80;99.90;;;;;;5053985;28;20984;-49
2023/05/25 02:36:27;;;;;;;10.27;6.50;;;13.00;99.90;;;;;;5053986;28;20459;-49
2023/05/25 02:38:53;;;;;;;11.20;5.93;;;12.70;99.90;;;;;;5053639;28;20437;-50
2023/05/25 02:41:22;;;;;;;12.23;7.30;;;12.20;99.90;;;;;;5071855;28;20989;-49
2023/05/25 02:43:49;;;;;;;10.70;6.30;;;12.60;99.90;;;;;;5071908;28;20759;-50
2023/05/25 02:46:17;;;;;;;12.73;7.43;;;12.80;99.90;;;;;;5053865;28;20944;-50
2023/05/25 02:48:45;;;;;;;13.23;6.93;;;12.60;99.90;;;;;;5071403;28;20431;-49
2023/05/25 02:51:12;;;;;;;11.63;6.83;;;12.90;99.90;;;;;;5057974;28;20560;-51
2023/05/25 02:53:38;;;;;;;14.17;7.60;;;12.80;99.90;;;;;;5060581;28;20439;-49
2023/05/25 02:56:05;;;;;;;13.50;6.90;;;12.60;99.90;;;;;;5060377;28;20431;-49
2023/05/25 02:58:34;;;;;;;15.80;7.90;;;12.70;99.90;;;;;;5060017;28;20546;-50
2023/05/25 03:01:09;;;;;;;11.00;7.13;;;12.70;99.90;;;;;;5060362;28;20816;-51
2023/05/25 03:03:37;;;;;;;10.57;6.67;;;12.50;99.90;;;;;;5060364;28;20537;-51
2023/05/25 03:06:06;;;;;;;11.57;7.30;;;12.50;99.90;;;;;;5060644;28;20453;-49
2023/05/25 03:08:33;;;;;;;9.90;8.10;;;12.50;99.90;;;;;;5059808;28;20521;-50
2023/05/25 03:10:59;;;;;;;14.00;7.90;;;12.80;99.90;;;;;;5060237;28;20466;-50
2023/05/25 03:13:26;;;;;;;10.20;7.20;;;12.40;99.90;;;;;;5078029;28;20465;-50
2023/05/25 03:15:53;;;;;;;16.57;8.97;;;12.60;99.90;;;;;;5060227;28;20491;-50
2023/05/25 03:18:20;;;;;;;10.73;6.77;;;12.90;99.90;;;;;;5059918;28;20513;-51
2023/05/25 03:20:48;;;;;;;11.63;7.60;;;13.00;99.90;;;;;;5060224;28;20527;-50
2023/05/25 03:23:15;;;;;;;15.87;8.10;;;12.40;99.90;;;;;;5078206;28;20915;-50
2023/05/25 03:25:42;;;;;;;16.00;8.50;;;12.50;99.90;;;;;;5060172;28;20842;-50
2023/05/25 03:28:10;;;;;;;11.53;8.40;;;12.50;99.90;;;;;;5059804;28;20449;-51
2023/05/25 03:30:38;;;;;;;10.07;7.23;;;12.70;99.90;;;;;;5059893;28;20451;-50
2023/05/25 03:33:04;;;;;;;11.03;7.17;;;12.40;99.90;;;;;;5059961;28;20575;-51
2023/05/25 03:35:36;;;;;;;17.87;7.90;;;13.00;99.90;;;;;;5059903;28;20442;-50
2023/05/25 03:38:04;;;;;;;17.00;8.30;;;12.50;99.90;;;;;;5060005;28;20436;-50
2023/05/25 03:40:31;;;;;;;9.87;8.07;;;12.60;99.90;;;;;;5077887;28;20412;-50
2023/05/25 03:42:57;;;;;;;12.97;8.40;;;12.50;99.90;;;;;;5060217;28;20937;-49
2023/05/25 03:45:24;;;;;;;12.30;8.17;;;12.40;99.90;;;;;;5077985;28;20755;-50
2023/05/25 03:47:51;;;;;;;11.43;7.60;;;12.30;99.90;;;;;;5060040;28;20781;-51
2023/05/25 03:50:18;;;;;;;20.60;8.60;;;13.00;99.90;;;;;;5059465;28;20543;-50
2023/05/25 03:52:44;;;;;;;15.13;8.67;;;12.80;99.90;;;;;;5077634;28;20975;-49
2023/05/25 03:55:13;;;;;;;14.73;8.80;;;13.20;99.90;;;;;;5059628;28;20459;-50
2023/05/25 03:57:40;;;;;;;19.77;7.67;;;12.60;99.90;;;;;;5059634;28;20885;-49
2023/05/25 04:00:08;;;;;;;17.23;8.50;;;12.70;99.90;;;;;;5059252;28;20463;-50
2023/05/25 04:02:39;;;;;;;11.77;7.90;;;12.90;99.90;;;;;;5074411;28;21045;-50
2023/05/25 04:05:06;;;;;;;13.67;7.70;;;13.50;99.90;;;;;;5074568;28;20431;-51
2023/05/25 04:07:33;;;;;;;12.17;8.30;;;13.30;99.90;;;;;;5056556;28;20442;-51
2023/05/25 04:09:59;;;;;;;13.57;7.70;;;13.30;99.90;;;;;;5074145;28;20736;-49
2023/05/25 04:12:28;;;;;;;12.37;7.80;;;13.50;99.90;;;;;;5056387;28;20469;-49
2023/05/25 04:14:55;;;;;;;13.63;8.77;;;13.90;99.90;;;;;;5074595;28;20440;-50
2023/05/25 04:17:23;;;;;;;8.93;6.87;;;14.10;99.90;;;;;;5056435;28;20823;-50
2023/05/25 04:19:50;;;;;;;14.70;8.40;;;14.30;99.90;;;;;;5074273;28;20425;-50
2023/05/25 04:22:18;;;;;;;11.23;7.80;;;14.00;99.90;;;;;;5056327;28;20466;-49
2023/05/25 04:24:45;;;;;;;14.20;8.90;;;14.60;99.90;;;;;;5074159;28;20758;-49
2023/05/25 04:27:13;;;;;;;14.73;9.03;;;14.60;99.90;;;;;;5056114;28;20478;-49
2023/05/25 04:29:41;;;;;;;17.83;11.13;;;14.70;99.90;;;;;;5055676;28;20816;-49
2023/05/25 04:32:20;;;;;;;17.60;8.77;;;14.40;99.90;;;;;;5074053;28;20462;-50
2023/05/25 04:34:53;;;;;;;13.43;9.30;;;14.50;99.90;;;;;;5056467;28;20453;-50
2023/05/25 04:37:26;;;;;;;22.03;9.17;;;14.80;99.90;;;;;;5055820;28;20517;-49
2023/05/25 04:39:53;;;;;;;14.27;9.77;;;14.80;99.90;;;;;;5055625;28;20453;-50
2023/05/25 04:42:22;;;;;;;17.37;9.03;;;14.90;99.90;;;;;;5056162;28;20822;-51
2023/05/25 04:44:54;;;;;;;15.00;10.33;;;14.60;99.90;;;;;;5055970;28;20446;-51
2023/05/25 04:47:21;;;;;;;21.60;10.37;;;14.60;99.90;;;;;;5055832;28;20431;-49
2023/05/25 04:49:48;;;;;;;19.87;9.47;;;14.70;99.90;;;;;;5055239;28;20458;-50
2023/05/25 04:52:14;;;;;;;16.03;9.73;;;15.10;99.90;;;;;;5073537;28;20881;-50
2023/05/25 04:54:42;;;;;;;15.10;9.50;;;15.30;99.90;;;;;;5055869;28;20420;-50
2023/05/25 04:57:09;;;;;;;21.83;10.60;;;15.20;99.90;;;;;;5055504;28;20456;-50
2023/05/25 04:59:36;;;;;;;20.03;10.23;;;15.40;99.90;;;;;;5055344;28;20452;-49
2023/05/25 05:02:05;;;;;;;16.80;11.30;;;15.10;99.90;;;;;;5055415;28;20820;-50
2023/05/25 05:04:32;;;;;;;13.90;9.77;;;15.40;99.90;;;;;;5073158;28;20804;-50
2023/05/25 05:06:58;;;;;;;18.63;9.57;;;15.20;99.90;;;;;;5055414;28;20834;-51
2023/05/25 05:09:27;;;;;;;18.93;8.90;;;15.70;99.90;;;;;;5054890;28;20445;-50
2023/05/25 05:11:56;;;;;;;25.17;9.00;;;14.90;99.90;;;;;;5055164;28;20473;-49
2023/05/25 05:14:23;;;;;;;14.63;9.00;;;15.60;99.90;;;;;;5072783;28;20444;-49
2023/05/25 05:16:50;;;;;;;16.00;8.60;;;15.50;99.90;;;;;;5054963;28;20451;-50
2023/05/25 05:19:18;;;;;;;18.23;10.83;;;15.40;99.90;;;;;;5054984;28;20553;-50
2023/05/25 05:21:44;;;;;;;18.00;9.50;;;15.60;99.90;;;;;;5072941;28;20434;-50
2023/05/25 05:24:12;;;;;;;21.13;9.97;;;16.00;99.90;;;;;;5055010;28;20954;-50
2023/05/25 05:26:39;;;;;;;14.83;8.83;;;15.70;99.90;;;;;;5054788;28;20435;-49
2023/05/25 05:29:06;;;;;;;17.63;9.10;;;15.80;99.90;;;;;;5054641;28;20537;-51
2023/05/25 05:31:35;;;;;;;15.17;9.07;;;15.70;99.90;;;;;;5054445;28;20478;-50
2023/05/25 05:34:02;;;;;;;16.43;10.03;;;16.20;99.90;;;;;;5054717;28;20573;-48
2023/05/25 05:36:32;;;;;;;14.70;9.57;;;16.00;99.90;;;;;;5054665;28;20448;-50
2023/05/25 05:38:58;;;;;;;17.13;9.90;;;16.10;99.90;;;;;;5054380;28;20520;-48
2023/05/25 05:41:26;;;;;;;16.70;9.50;;;15.90;99.90;;;;;;5054485;28;20478;-52
2023/05/25 05:43:52;;;;;;;14.50;9.20;;;15.90;99.90;;;;;;5054122;28;20859;-51
2023/05/25 05:46:19;;;;;;;18.30;10.70;;;16.10;99.90;;;;;;5072432;28;20420;-50
2023/05/25 05:48:46;;;;;;;21.17;10.80;;;16.40;99.90;;;;;;5072124;28;20483;-51
2023/05/25 05:51:12;;;;;;;20.47;10.70;;;16.40;99.90;;;;;;5088603;22;20820;31
2023/05/25 05:53:40;;;;;;;18.60;11.57;;;16.30;99.90;;;;;;5052663;28;20825;-45
2023/05/25 05:56:16;;;;;;;14.13;9.33;;;16.00;99.90;;;;;;5072354;28;20431;-46
2023/05/25 05:58:43;;;;;;;17.97;9.80;;;16.50;99.90;;;;;;5054560;28;20523;-44
2023/05/25 06:01:10;;;;;;;15.07;9.63;;;16.50;99.80;;;;;;5053958;28;20967;-44
2023/05/25 06:03:38;;;;;;;23.07;10.07;;;16.60;99.70;;;;;;5054097;28;20448;-46
2023/05/25 06:06:06;;;;;;;21.10;9.83;;;16.60;99.50;;;;;;5053956;28;20664;-45
2023/05/25 06:08:33;;;;;;;13.10;8.57;;;16.80;99.40;;;;;;5053767;28;20901;-45
2023/05/25 06:11:01;;;;;;;15.23;9.90;;;17.00;99.30;;;;;;5053592;28;20533;-46
2023/05/25 06:13:28;;;;;;;17.73;10.67;;;17.20;99.10;;;;;;5053922;28;20482;-52
2023/05/25 06:15:55;;;;;;;14.80;9.23;;;17.00;98.80;;;;;;5053815;28;20455;-44
2023/05/25 06:18:24;;;;;;;16.20;9.13;;;17.00;98.70;;;;;;5053853;28;20458;-44
2023/05/25 06:20:51;;;;;;;15.83;9.40;;;17.10;98.40;;;;;;5053752;28;20427;-45
2023/05/25 06:23:18;;;;;;;20.10;8.93;;;17.40;98.30;;;;;;5071597;28;20474;-45
2023/05/25 06:25:45;;;;;;;16.37;9.57;;;17.30;98.10;;;;;;5054116;28;20527;-45
2023/05/25 06:28:13;;;;;;;19.33;9.03;;;17.50;97.80;;;;;;5053957;28;20467;-45
2023/05/25 06:30:40;;;;;;;14.60;7.83;;;17.50;97.50;;;;;;5071705;28;20547;-46
2023/05/25 06:33:08;;;;;;;10.40;7.30;;;17.60;97.30;;;;;;5053639;28;20477;-46
2023/05/25 06:35:34;;;;;;;15.23;7.10;;;17.60;97.10;;;;;;5053931;28;20442;-47
2023/05/25 06:38:01;;;;;;;15.93;8.10;;;17.90;97.10;;;;;;5053847;28;20517;-46
2023/05/25 06:40:28;;;;;;;14.13;8.00;;;17.70;96.90;;;;;;5053464;28;20970;-47
2023/05/25 06:42:55;;;;;;;19.00;8.77;;;17.70;96.70;;;;;;5053812;28;20460;-46
2023/05/25 06:45:42;;;;;;;13.77;8.57;;;17.10;96.20;;;;;;5053254;28;20996;-47
2023/05/25 06:48:09;;;;;;;12.93;6.93;;;17.90;96.30;;;;;;5071259;28;20447;-46
2023/05/25 06:50:35;;;;;;;16.77;7.33;;;17.90;96.10;;;;;;5053279;28;20762;-47
2023/05/25 06:53:02;;;;;;;18.20;8.63;;;18.30;96.20;;;;;;5072179;28;20482;-45
2023/05/25 06:55:29;;;;;;;14.77;7.80;;;17.50;95.80;;;;;;5071734;28;20464;-44
2023/05/25 06:57:55;;;;;;;18.07;7.87;;;17.90;95.80;;;;;;5071512;28;20437;-46
2023/05/25 07:00:22;;;;;;;12.00;7.60;;;18.00;95.70;;;;;;5071323;28;20948;-45
2023/05/25 07:02:50;;;;;;;13.80;6.90;;;17.90;95.30;;;;;;5071507;28;20451;-44
2023/05/25 07:05:16;;;;;;;15.63;6.50;;;17.70;95.50;;;;;;5071158;28;20437;-45
2023/05/25 07:07:43;;;;;;;14.43;6.90;;;18.10;95.20;;;;;;5071742;28;20853;-47
2023/05/25 07:10:10;;;;;;;10.30;7.17;;;18.20;95.10;;;;;;5070876;28;20451;-44
2023/05/25 07:12:37;;;;;;;14.27;6.30;;;18.00;94.90;;;;;;5053362;28;20478;-46
2023/05/25 07:15:04;;;;;;;11.60;5.90;;;18.00;94.90;;;;;;5071244;28;20432;-46
2023/05/25 07:17:31;;;;;;;17.77;6.30;;;18.40;95.00;;;;;;5071188;28;20437;-46
2023/05/25 07:19:59;;;;;;;11.07;6.07;;;18.10;94.60;;;;;;5071179;28;20434;-46
2023/05/25 07:22:26;;;;;;;14.53;6.90;;;18.30;94.30;;;;;;5071496;28;20969;-46
2023/05/25 07:24:52;;;;;;;12.23;4.83;;;18.30;94.30;;;;;;5071285;28;21012;-45
2023/05/25 07:27:19;;;;;;;12.00;4.70;;;18.30;93.50;;;;;;5071454;28;20432;-44
2023/05/25 07:29:46;;;;;;;9.33;4.80;;;18.40;92.80;;;;;;5072392;28;20960;-47
2023/05/25 07:32:12;;;;;;;13.20;5.77;;;17.90;91.80;;;;;;5073330;28;20468;-46
2023/05/25 07:34:39;;;;;;;15.07;7.50;;;18.30;91.80;;;;;;5055264;28;20490;-46
2023/05/25 07:37:07;;;;;;;12.80;4.77;;;18.30;92.10;;;;;;5056920;28;20786;-44
2023/05/25 07:39:34;;;;;;;11.40;4.70;;;18.20;91.20;;;;;;5076279;28;20466;-46
2023/05/25 07:42:01;;;;;;;12.17;5.00;;;18.30;90.60;;;;;;5076384;28;20452;-45
2023/05/25 07:44:28;;;;;;;7.73;4.00;;;18.10;90.30;;;;;;5075314;28;20503;-44
2023/05/25 07:46:55;;;;;;;11.60;4.90;;;18.40;90.10;;;;;;5074986;28;20775;-45
2023/05/25 07:49:22;;;;;;;12.37;8.80;;;18.40;89.80;;;;;;5074285;28;20440;-45
2023/05/25 07:51:48;;;;;;;16.10;5.30;;;18.80;89.30;;;;;;5074686;28;20443;-47
2023/05/25 07:54:16;;;;;;;13.00;4.80;;;18.80;89.40;;;;;;5074879;28;20499;-45
2023/05/25 07:56:43;;;;;;;10.83;4.93;;;18.90;89.60;;;;;;5074526;28;20577;-47
2023/05/25 07:59:09;;;;;;;14.00;4.57;;;18.70;89.40;;;;;;5074384;28;20436;-43
2023/05/25 08:01:37;;;;;;;9.37;4.73;;;19.00;89.10;;;;;;5074186;28;20502;-45
2023/05/25 08:04:04;;;;;;;10.20;4.23;;;18.90;88.60;;;;;;5074951;28;20914;-46
2023/05/25 08:06:31;;;;;;;12.77;4.97;;;18.90;87.90;;;;;;5074208;28;20434;-47
2023/05/25 08:08:57;;;;;;;11.20;4.20;;;18.90;86.60;;;;;;5074067;28;20434;-44
2023/05/25 08:11:26;;;;;;;7.20;4.40;;;19.00;86.20;;;;;;5074599;28;20429;-45
2023/05/25 08:13:53;;;;;;;12.63;5.10;;;19.40;86.40;;;;;;5074337;28;20477;-45
2023/05/25 08:16:19;;;;;;;11.97;4.53;;;19.00;85.70;;;;;;5074774;28;20425;-44
2023/05/25 08:18:46;;;;;;;7.57;4.27;;;19.10;85.70;;;;;;5073852;28;20400;-45
2023/05/25 08:21:13;;;;;;;8.30;5.23;;;19.20;85.60;;;;;;5073903;28;20405;-47
2023/05/25 08:23:41;;;;;;;9.00;4.60;;;19.10;85.00;;;;;;5074775;28;20439;-46
2023/05/25 08:26:07;;;;;;;13.63;4.90;;;19.20;84.70;;;;;;5074118;28;20480;-46
2023/05/25 08:28:35;;;;;;;12.37;4.73;;;19.20;84.40;;;;;;5074025;28;20440;-44
2023/05/25 08:31:03;;;;;;;9.50;4.10;;;19.50;84.80;;;;;;5074581;28;20481;-45
2023/05/25 08:33:29;;;;;;;11.70;4.30;;;19.20;84.70;;;;;;5074428;28;20504;-45
2023/05/25 08:35:57;;;;;;;10.90;4.53;;;19.40;84.30;;;;;;5075469;28;20525;-46
2023/05/25 08:38:24;;;;;;;8.07;4.33;;;19.50;83.40;;;;;;5076478;28;21082;-48
2023/05/25 08:41:02;;;;;;;10.10;4.40;;;19.60;81.80;;;;;;5076098;28;20444;-46
2023/05/25 08:43:29;;;;;;;9.10;5.30;;;19.50;81.20;;;;;;5075281;28;20452;-45
2023/05/25 08:46:02;;;;;;;8.27;3.80;;;19.60;81.90;;;;;;5075145;28;20449;-45
2023/05/25 08:48:32;;;;;;;8.50;4.47;;;19.40;80.90;;;;;;5074505;28;20530;-45
2023/05/25 08:51:01;;;;;;;9.83;3.37;;;19.60;80.80;;;;;;5056780;28;21045;-47
2023/05/25 08:53:31;;;;;;;9.87;4.20;;;19.30;80.40;;;;;;5075091;28;20489;-45
2023/05/25 08:55:59;;;;;;;7.20;3.53;;;19.60;80.10;;;;;;5069800;28;21144;-46
2023/05/25 08:58:33;;;;;;;8.53;4.20;;;19.60;79.60;;;;;;5070199;28;20792;-45
2023/05/25 09:01:07;;;;;;;8.93;4.70;;;19.60;79.20;;;;;;5073342;28;20477;-44
2023/05/25 09:03:35;;;;;;;10.82;4.60;;;19.80;79.80;;;;;;5064219;28;20310;-45
2023/05/25 09:06:02;;;;;;;10.43;4.95;;;20.00;79.90;;;;;;5070120;28;20433;-44
2023/05/25 09:08:30;;;;;;;9.87;4.93;;;20.50;78.80;;;;;;5083075;28;20213;-44
2023/05/25 09:10:57;;;;;;;13.83;5.40;;;20.40;79.20;;;;;;5059483;28;20451;-45
2023/05/25 09:13:24;;;;;;;8.20;4.60;;;20.50;79.40;;;;;;5074971;28;20487;-45
2023/05/25 09:15:51;;;;;;;9.27;3.63;;;20.50;78.60;;;;;;5075209;28;20445;-46
2023/05/25 09:18:20;;;;;;;8.50;4.40;;;20.50;77.30;;;;;;5083259;28;20437;-48
2023/05/25 09:20:46;;;;;;;7.70;3.90;;;20.50;76.90;;;;;;5080360;28;20436;-46
2023/05/25 09:23:14;;;;;;;8.83;4.23;;;20.40;76.60;;;;;;5072323;28;20464;-46
2023/05/25 09:25:41;;;;;;;11.10;5.20;;;20.40;77.00;;;;;;5074373;28;20484;-46
2023/05/25 09:28:09;;;;;;;13.57;5.00;;;20.40;77.00;;;;;;5081099;28;20453;-46
2023/05/25 09:30:35;;;;;;;7.20;4.47;;;20.30;77.10;;;;;;5075741;28;20462;-46
2023/05/25 09:33:11;;;;;;;18.70;6.53;;;20.30;77.50;;;;;;5086961;28;20455;-45
2023/05/25 09:35:40;;;;;;;8.73;4.67;;;20.30;77.70;;;;;;5061384;28;20480;-48
2023/05/25 09:38:07;;;;;;;7.83;5.07;;;20.20;77.90;;;;;;5083519;28;20416;-46
2023/05/25 09:40:34;;;;;;;11.33;5.47;;;20.10;77.70;;;;;;5082434;28;20804;-45
2023/05/25 09:43:03;;;;;;;8.90;4.97;;;20.10;77.90;;;;;;5072704;28;20495;-44
2023/05/25 09:45:30;;;;;;;10.10;4.90;;;20.20;77.70;;;;;;5073745;28;20932;-47
2023/05/25 09:47:59;;;;;;;7.93;4.90;;;20.30;77.60;;;;;;5077419;28;20540;-46
2023/05/25 09:50:27;;;;;;;8.40;5.13;;;20.10;76.80;;;;;;5078775;28;20439;-46
2023/05/25 09:52:58;;;;;;;15.37;5.53;;;20.50;77.80;;;;;;5070517;28;21004;-46
2023/05/25 09:55:26;;;;;;;9.30;6.10;;;20.60;78.70;;;;;;5073215;28;21014;-44
2023/05/25 09:57:53;;;;;;;15.00;6.30;;;20.60;79.00;;;;;;5085527;28;20860;-46
2023/05/25 10:00:21;;;;;;;12.93;5.90;;;20.60;78.50;;;;;;5079573;28;20481;-46
2023/05/25 10:02:48;;;;;;;10.40;6.23;;;20.60;78.00;;;;;;5081706;28;20792;-45
2023/05/25 10:05:15;;;;;;;10.70;5.83;;;20.50;78.00;;;;;;5065707;28;20440;-45
2023/05/25 10:07:44;;;;;;;8.07;5.50;;;20.40;78.20;;;;;;5088510;28;20445;-46
2023/05/25 10:10:15;;;;;;;10.38;5.40;;;20.60;78.30;;;;;;5070349;28;20912;-46
2023/05/25 10:12:43;;;;;;;10.03;5.57;;;21.00;76.40;;;;;;5075397;28;20223;-47
2023/05/25 10:15:13;;;;;;;7.50;4.10;;;20.90;76.30;;;;;;5080037;28;20484;-45
2023/05/25 10:17:45;;;;;;;6.60;4.20;;;20.80;75.10;;;;;;5087300;28;20432;-45
2023/05/25 10:20:13;;;;;;;10.37;4.80;;;20.30;74.00;;;;;;5057565;28;20479;-45
2023/05/25 10:22:44;;;;;;;7.67;4.40;;;20.40;74.70;;;;;;5070969;28;20466;-49
2023/05/25 10:25:22;;;;;;;7.27;4.87;;;20.50;74.80;;;;;;5085040;28;20413;-45
2023/05/25 10:27:57;;;;;;;8.13;5.77;;;20.50;74.80;;;;;;5071232;28;20435;-45
2023/05/25 10:30:25;;;;;;;6.17;4.50;;;20.60;75.50;;;;;;5074703;28;20949;-47
2023/05/25 10:32:53;;;;;;;9.07;4.87;;;20.50;75.70;;;;;;5085329;28;20462;-44
2023/05/25 10:35:20;;;;;;;7.30;4.10;;;20.50;76.50;;;;;;5088086;28;20482;-46
2023/05/25 10:37:48;;;;;;;10.97;6.00;;;20.30;76.70;;;;;;5077085;28;20441;-45
2023/05/25 10:40:16;;;;;;;10.50;5.43;;;20.30;77.10;;;;;;5081379;28;20454;-45
2023/05/25 10:42:45;;;;;;;6.70;5.20;;;20.10;77.40;;;;;;5084441;28;20464;-45
2023/05/25 10:45:12;;;;;;;22.03;5.87;;;20.10;77.50;;;;;;5074975;28;20451;-45
2023/05/25 10:47:41;;;;;;;11.97;5.23;;;20.30;77.90;;;;;;5086762;28;20791;-45
2023/05/25 10:50:20;;;;;;;11.87;5.87;;;20.50;78.20;;;;;;5061009;28;20520;-47
2023/05/25 10:52:56;;;;;;;9.40;5.80;;;20.50;78.20;;;;;;5059533;28;20841;-46
2023/05/25 10:55:29;;;;;;;14.07;5.20;;;20.50;77.70;;;;;;5087614;28;20478;-45
2023/05/25 10:58:08;;;;;;;10.80;4.90;;;20.50;76.80;;;;;;5078287;28;20468;-45
2023/05/25 11:00:34;;;;;;;9.20;4.50;;;20.50;76.40;;;;;;5074985;28;20907;-45
2023/05/25 11:03:02;;;;;;;9.10;5.17;;;20.50;76.20;;;;;;5081839;28;20459;-46
2023/05/25 11:05:37;;;;;;;9.60;4.90;;;20.30;75.60;;;;;;5075002;28;20463;-44
2023/05/25 11:08:04;;;;;;;9.23;4.80;;;20.60;76.00;;;;;;5083746;28;20429;-48
2023/05/25 11:10:52;;;;;;;12.80;4.83;;;20.40;75.40;;;;;;5064976;28;20430;-46
2023/05/25 11:13:36;;;;;;;9.80;4.70;;;20.40;75.00;;;;;;5080087;28;20600;-44
2023/05/25 11:16:19;;;;;;;7.43;4.63;;;20.40;75.40;;;;;;5087894;28;20887;-45
2023/05/25 11:18:50;;;;;;;10.27;4.57;;;20.40;75.40;;;;;;5080712;28;20457;-46
2023/05/25 11:21:22;;;;;;;9.77;5.03;;;20.30;75.10;;;;;;5092046;28;20442;-43
2023/05/25 11:23:57;;;;;;;9.80;5.67;;;20.40;75.30;;;;;;5083218;28;20446;-43
2023/05/25 11:26:27;;;;;;;10.60;5.07;;;20.40;75.20;;;;;;5087237;28;20428;-47
2023/05/25 11:28:55;;;;;;;7.43;4.30;;;20.60;75.50;;;;;;5072673;28;20794;-44
2023/05/25 11:31:28;;;;;;;6.47;5.17;;;20.60;75.40;;;;;;5079427;28;20439;-48
2023/05/25 11:33:57;;;;;;;9.23;4.50;;;20.70;75.70;;;;;;5088257;28;20947;-44
2023/05/25 11:36:24;;;;;;;10.25;5.60;;;20.60;76.40;;;;;;5083987;28;20435;-47
2023/05/25 11:38:53;;;;;;;12.27;5.78;;;21.00;74.70;;;;;;5061738;28;20492;-45
2023/05/25 11:41:20;;;;;;;8.07;4.83;;;21.20;74.50;;;;;;5090933;28;20219;-43
2023/05/25 11:43:49;;;;;;;13.50;7.77;;;21.20;74.00;;;;;;5062292;28;20454;-45
2023/05/25 11:46:17;;;;;;;13.27;4.63;;;21.30;73.60;;;;;;5083635;28;20523;-47
2023/05/25 11:48:50;;;;;;;9.90;5.00;;;21.40;73.40;;;;;;5087043;28;20447;-47
2023/05/25 11:51:18;;;;;;;10.80;5.40;;;21.50;73.10;;;;;;5076682;28;20905;-46
2023/05/25 11:53:45;;;;;;;9.33;4.70;;;21.60;73.10;;;;;;5105263;22;20510;-50
2023/05/25 11:56:13;;;;;;;9.83;6.20;;;21.50;72.30;;;;;;5085014;28;20957;-50
2023/05/25 11:58:40;;;;;;;9.20;5.33;;;21.50;72.70;;;;;;5086150;28;20530;-49
2023/05/25 12:01:15;;;;;;;10.07;5.00;;;21.60;73.10;;;;;;5075852;28;20473;-52
2023/05/25 12:03:42;;;;;;;9.90;5.87;;;22.20;73.60;;;;;;5075245;28;20470;-51
2023/05/25 12:06:10;;;;;;;8.50;5.23;;;21.50;73.10;;;;;;5085011;28;20438;-51
2023/05/25 12:08:37;;;;;;;10.83;4.67;;;21.70;73.60;;;;;;5085174;28;20538;-51
2023/05/25 12:11:04;;;;;;;7.90;4.80;;;21.70;73.60;;;;;;5076996;28;20509;-49
2023/05/25 12:13:31;;;;;;;10.30;5.20;;;21.80;73.20;;;;;;5076508;28;20294;-50
2023/05/25 12:15:59;;;;;;;6.53;4.40;;;21.70;72.90;;;;;;5086373;28;20801;-49
2023/05/25 12:18:27;;;;;;;6.73;4.70;;;21.80;73.40;;;;;;5083406;28;20523;-49
2023/05/25 12:20:54;;;;;;;10.82;5.60;;;21.80;73.30;;;;;;5077499;28;20479;-50
2023/05/25 12:23:21;;;;;;;10.90;5.63;;;22.20;72.70;;;;;;5074314;28;20216;-50
2023/05/25 12:25:49;;;;;;;11.93;5.50;;;22.00;72.60;;;;;;5087727;28;20759;-50
2023/05/25 12:28:16;;;;;;;10.57;5.37;;;21.90;73.00;;;;;;5081899;28;20450;-51
2023/05/25 12:30:44;;;;;;;11.50;5.80;;;21.80;73.40;;;;;;5093261;28;20442;-51
2023/05/25 12:33:13;;;;;;;11.27;6.57;;;21.70;74.40;;;;;;5075664;28;20829;-51
2023/05/25 12:35:48;;;;;;;10.60;6.30;;;21.70;75.10;;;;;;5087300;28;20560;-51
2023/05/25 12:38:17;;;;;;;21.48;7.97;;;21.60;76.30;;;;;;5081468;28;20432;-52
2023/05/25 12:40:44;;;;;;;11.07;6.70;;;21.60;76.80;;;;;;5079406;28;20207;-49
2023/05/25 12:43:11;;;;;;;17.87;7.60;;;21.40;77.10;;;;;;5089466;28;20563;-51